sensor_id;sensor_type;location;lat;lon;timestamp;P1;durP1;ratioP1;P2;durP2;ratioP2
28774;SDS011;15926;51.348;6.596;2023-05-13T00:01:31;14.93;;;12.18;;
28774;SDS011;15926;51.348;6.596;2023-05-13T00:04:09;12.48;;;10.77;;
28774;SDS011;15926;51.348;6.596;2023-05-13T00:06:38;13.05;;;10.60;;
28774;SDS011;15926;51.348;6.596;2023-05-13T00:09:04;14.52;;;11.93;;
28774;SDS011;15926;51.348;6.596;2023-05-13T00:11:30;14.88;;;13.15;;
28774;SDS011;15926;51.348;6.596;2023-05-13T00:13:56;17.15;;;12.60;;
28774;SDS011;15926;51.348;6.596;2023-05-13T00:16:22;19.45;;;14.23;;
28774;SDS011;15926;51.348;6.596;2023-05-13T00:18:51;19.40;;;14.68;;
28774;SDS011;15926;51.348;6.596;2023-05-13T00:21:17;17.48;;;15.32;;
28774;SDS011;15926;51.348;6.596;2023-05-13T00:23:46;22.52;;;15.57;;
28774;SDS011;15926;51.348;6.596;2023-05-13T00:26:16;16.35;;;14.68;;
28774;SDS011;15926;51.348;6.596;2023-05-13T00:28:42;18.40;;;14.63;;
28774;SDS011;15926;51.348;6.596;2023-05-13T00:31:08;20.27;;;15.80;;
28774;SDS011;15926;51.348;6.596;2023-05-13T00:33:34;21.02;;;15.20;;
28774;SDS011;15926;51.348;6.596;2023-05-13T00:36:00;18.27;;;14.95;;
28774;SDS011;15926;51.348;6.596;2023-05-13T00:38:26;19.52;;;14.70;;
28774;SDS011;15926;51.348;6.596;2023-05-13T00:40:52;18.90;;;15.45;;
28774;SDS011;15926;51.348;6.596;2023-05-13T00:43:18;19.17;;;14.93;;
28774;SDS011;15926;51.348;6.596;2023-05-13T00:45:44;17.40;;;14.18;;
28774;SDS011;15926;51.348;6.596;2023-05-13T00:48:10;18.25;;;15.98;;
28774;SDS011;15926;51.348;6.596;2023-05-13T00:50:36;17.88;;;15.13;;
28774;SDS011;15926;51.348;6.596;2023-05-13T00:53:03;19.95;;;15.45;;
28774;SDS011;15926;51.348;6.596;2023-05-13T00:55:29;17.80;;;15.13;;
28774;SDS011;15926;51.348;6.596;2023-05-13T00:57:55;22.27;;;16.02;;
28774;SDS011;15926;51.348;6.596;2023-05-13T01:00:21;16.25;;;14.55;;
28774;SDS011;15926;51.348;6.596;2023-05-13T01:02:56;18.90;;;15.75;;
28774;SDS011;15926;51.348;6.596;2023-05-13T01:11:02;22.13;;;15.27;;
28774;SDS011;15926;51.348;6.596;2023-05-13T01:13:34;19.38;;;15.50;;
28774;SDS011;15926;51.348;6.596;2023-05-13T01:16:09;18.50;;;15.38;;
28774;SDS011;15926;51.348;6.596;2023-05-13T01:18:36;19.55;;;15.77;;
28774;SDS011;15926;51.348;6.596;2023-05-13T01:21:05;18.40;;;15.20;;
28774;SDS011;15926;51.348;6.596;2023-05-13T01:23:35;19.42;;;14.88;;
28774;SDS011;15926;51.348;6.596;2023-05-13T01:26:01;18.63;;;14.98;;
28774;SDS011;15926;51.348;6.596;2023-05-13T01:28:27;19.90;;;14.75;;
28774;SDS011;15926;51.348;6.596;2023-05-13T01:30:53;16.77;;;13.88;;
28774;SDS011;15926;51.348;6.596;2023-05-13T01:33:24;22.92;;;15.15;;
28774;SDS011;15926;51.348;6.596;2023-05-13T01:35:51;18.70;;;15.00;;
28774;SDS011;15926;51.348;6.596;2023-05-13T01:38:17;19.15;;;14.25;;
28774;SDS011;15926;51.348;6.596;2023-05-13T01:40:45;19.00;;;15.20;;
28774;SDS011;15926;51.348;6.596;2023-05-13T01:43:11;21.15;;;15.35;;
28774;SDS011;15926;51.348;6.596;2023-05-13T01:45:37;16.23;;;14.07;;
28774;SDS011;15926;51.348;6.596;2023-05-13T01:48:03;18.60;;;15.70;;
28774;SDS011;15926;51.348;6.596;2023-05-13T01:50:29;17.02;;;13.93;;
28774;SDS011;15926;51.348;6.596;2023-05-13T01:52:58;18.50;;;14.65;;
28774;SDS011;15926;51.348;6.596;2023-05-13T01:55:27;21.02;;;14.65;;
28774;SDS011;15926;51.348;6.596;2023-05-13T01:57:53;21.67;;;14.75;;
28774;SDS011;15926;51.348;6.596;2023-05-13T02:00:19;17.15;;;13.73;;
28774;SDS011;15926;51.348;6.596;2023-05-13T02:02:48;19.08;;;14.88;;
28774;SDS011;15926;51.348;6.596;2023-05-13T02:05:14;19.45;;;15.35;;
28774;SDS011;15926;51.348;6.596;2023-05-13T02:07:40;16.40;;;14.48;;
28774;SDS011;15926;51.348;6.596;2023-05-13T02:10:09;20.30;;;15.25;;
28774;SDS011;15926;51.348;6.596;2023-05-13T02:12:35;19.75;;;16.05;;
28774;SDS011;15926;51.348;6.596;2023-05-13T02:15:01;17.02;;;14.95;;
28774;SDS011;15926;51.348;6.596;2023-05-13T02:17:27;18.23;;;14.43;;
28774;SDS011;15926;51.348;6.596;2023-05-13T02:19:53;19.80;;;13.70;;
28774;SDS011;15926;51.348;6.596;2023-05-13T02:22:19;16.85;;;14.38;;
28774;SDS011;15926;51.348;6.596;2023-05-13T02:24:45;18.85;;;15.27;;
28774;SDS011;15926;51.348;6.596;2023-05-13T02:27:11;17.15;;;15.35;;
28774;SDS011;15926;51.348;6.596;2023-05-13T02:29:40;17.70;;;14.82;;
28774;SDS011;15926;51.348;6.596;2023-05-13T02:32:06;17.25;;;14.30;;
28774;SDS011;15926;51.348;6.596;2023-05-13T02:34:32;18.20;;;15.30;;
28774;SDS011;15926;51.348;6.596;2023-05-13T02:36:58;24.27;;;15.13;;
28774;SDS011;15926;51.348;6.596;2023-05-13T02:39:24;16.20;;;14.50;;
28774;SDS011;15926;51.348;6.596;2023-05-13T02:41:50;16.40;;;14.70;;
28774;SDS011;15926;51.348;6.596;2023-05-13T02:44:16;16.30;;;14.40;;
28774;SDS011;15926;51.348;6.596;2023-05-13T02:46:45;17.45;;;15.55;;
28774;SDS011;15926;51.348;6.596;2023-05-13T02:49:11;18.63;;;13.23;;
28774;SDS011;15926;51.348;6.596;2023-05-13T02:51:38;17.27;;;14.68;;
28774;SDS011;15926;51.348;6.596;2023-05-13T02:54:03;19.17;;;15.80;;
28774;SDS011;15926;51.348;6.596;2023-05-13T02:56:29;16.02;;;13.68;;
28774;SDS011;15926;51.348;6.596;2023-05-13T02:58:55;16.25;;;13.77;;
28774;SDS011;15926;51.348;6.596;2023-05-13T03:01:21;19.95;;;15.18;;
28774;SDS011;15926;51.348;6.596;2023-05-13T03:03:53;28.02;;;14.85;;
28774;SDS011;15926;51.348;6.596;2023-05-13T03:06:19;17.00;;;14.27;;
28774;SDS011;15926;51.348;6.596;2023-05-13T03:08:45;14.98;;;13.38;;
28774;SDS011;15926;51.348;6.596;2023-05-13T03:11:11;15.43;;;13.32;;
28774;SDS011;15926;51.348;6.596;2023-05-13T03:13:37;16.67;;;14.68;;
28774;SDS011;15926;51.348;6.596;2023-05-13T03:16:03;16.33;;;13.98;;
28774;SDS011;15926;51.348;6.596;2023-05-13T03:18:29;17.17;;;14.18;;
28774;SDS011;15926;51.348;6.596;2023-05-13T03:20:56;15.98;;;13.88;;
28774;SDS011;15926;51.348;6.596;2023-05-13T03:23:22;22.00;;;13.98;;
28774;SDS011;15926;51.348;6.596;2023-05-13T03:25:48;17.65;;;13.25;;
28774;SDS011;15926;51.348;6.596;2023-05-13T03:28:14;17.20;;;14.02;;
28774;SDS011;15926;51.348;6.596;2023-05-13T03:30:40;15.63;;;13.48;;
28774;SDS011;15926;51.348;6.596;2023-05-13T03:33:07;17.00;;;13.90;;
28774;SDS011;15926;51.348;6.596;2023-05-13T03:35:33;16.77;;;14.43;;
28774;SDS011;15926;51.348;6.596;2023-05-13T03:37:59;19.38;;;14.65;;
28774;SDS011;15926;51.348;6.596;2023-05-13T03:40:28;17.33;;;14.40;;
28774;SDS011;15926;51.348;6.596;2023-05-13T03:42:54;17.25;;;14.05;;
28774;SDS011;15926;51.348;6.596;2023-05-13T03:45:20;17.33;;;13.50;;
28774;SDS011;15926;51.348;6.596;2023-05-13T03:47:46;17.95;;;13.65;;
28774;SDS011;15926;51.348;6.596;2023-05-13T03:50:12;16.60;;;14.23;;
28774;SDS011;15926;51.348;6.596;2023-05-13T03:52:38;17.48;;;13.98;;
28774;SDS011;15926;51.348;6.596;2023-05-13T03:55:04;17.73;;;14.20;;
28774;SDS011;15926;51.348;6.596;2023-05-13T03:57:30;16.83;;;15.02;;
28774;SDS011;15926;51.348;6.596;2023-05-13T03:59:56;20.20;;;14.52;;
28774;SDS011;15926;51.348;6.596;2023-05-13T04:02:22;19.90;;;14.95;;
28774;SDS011;15926;51.348;6.596;2023-05-13T04:04:48;17.98;;;13.48;;
28774;SDS011;15926;51.348;6.596;2023-05-13T04:07:14;16.30;;;13.90;;
28774;SDS011;15926;51.348;6.596;2023-05-13T04:09:40;18.30;;;15.00;;
28774;SDS011;15926;51.348;6.596;2023-05-13T04:12:06;23.45;;;15.75;;
28774;SDS011;15926;51.348;6.596;2023-05-13T04:14:32;18.52;;;14.88;;
28774;SDS011;15926;51.348;6.596;2023-05-13T04:16:59;17.80;;;15.15;;
28774;SDS011;15926;51.348;6.596;2023-05-13T04:19:24;18.35;;;14.40;;
28774;SDS011;15926;51.348;6.596;2023-05-13T04:21:50;20.10;;;14.85;;
28774;SDS011;15926;51.348;6.596;2023-05-13T04:24:16;22.55;;;15.25;;
28774;SDS011;15926;51.348;6.596;2023-05-13T04:26:43;16.58;;;14.65;;
28774;SDS011;15926;51.348;6.596;2023-05-13T04:29:09;17.42;;;13.45;;
28774;SDS011;15926;51.348;6.596;2023-05-13T04:31:36;17.50;;;13.63;;
28774;SDS011;15926;51.348;6.596;2023-05-13T04:34:02;16.30;;;13.20;;
28774;SDS011;15926;51.348;6.596;2023-05-13T04:36:27;15.20;;;13.25;;
28774;SDS011;15926;51.348;6.596;2023-05-13T04:38:53;17.00;;;14.20;;
28774;SDS011;15926;51.348;6.596;2023-05-13T04:41:20;17.95;;;13.52;;
28774;SDS011;15926;51.348;6.596;2023-05-13T04:43:45;21.95;;;14.98;;
28774;SDS011;15926;51.348;6.596;2023-05-13T04:46:11;18.45;;;13.75;;
28774;SDS011;15926;51.348;6.596;2023-05-13T04:48:37;14.95;;;13.35;;
28774;SDS011;15926;51.348;6.596;2023-05-13T04:51:03;16.88;;;13.45;;
28774;SDS011;15926;51.348;6.596;2023-05-13T04:53:29;14.25;;;12.48;;
28774;SDS011;15926;51.348;6.596;2023-05-13T04:55:55;14.68;;;13.18;;
28774;SDS011;15926;51.348;6.596;2023-05-13T04:58:25;14.88;;;11.80;;
28774;SDS011;15926;51.348;6.596;2023-05-13T05:00:51;16.30;;;12.23;;
28774;SDS011;15926;51.348;6.596;2023-05-13T05:03:17;14.23;;;12.20;;
28774;SDS011;15926;51.348;6.596;2023-05-13T05:05:43;17.63;;;12.27;;
28774;SDS011;15926;51.348;6.596;2023-05-13T05:08:09;17.60;;;13.13;;
28774;SDS011;15926;51.348;6.596;2023-05-13T05:10:35;16.38;;;12.00;;
28774;SDS011;15926;51.348;6.596;2023-05-13T05:13:01;13.13;;;11.70;;
28774;SDS011;15926;51.348;6.596;2023-05-13T05:15:27;13.60;;;12.18;;
28774;SDS011;15926;51.348;6.596;2023-05-13T05:17:53;14.15;;;11.98;;
28774;SDS011;15926;51.348;6.596;2023-05-13T05:20:20;14.80;;;11.93;;
28774;SDS011;15926;51.348;6.596;2023-05-13T05:22:48;15.88;;;12.07;;
28774;SDS011;15926;51.348;6.596;2023-05-13T05:25:14;13.25;;;11.57;;
28774;SDS011;15926;51.348;6.596;2023-05-13T05:27:40;14.70;;;12.35;;
28774;SDS011;15926;51.348;6.596;2023-05-13T05:30:07;13.27;;;11.55;;
28774;SDS011;15926;51.348;6.596;2023-05-13T05:32:33;18.95;;;12.63;;
28774;SDS011;15926;51.348;6.596;2023-05-13T05:34:59;15.10;;;12.55;;
28774;SDS011;15926;51.348;6.596;2023-05-13T05:37:28;16.50;;;12.32;;
28774;SDS011;15926;51.348;6.596;2023-05-13T05:39:54;16.27;;;13.07;;
28774;SDS011;15926;51.348;6.596;2023-05-13T05:42:20;17.33;;;11.60;;
28774;SDS011;15926;51.348;6.596;2023-05-13T05:44:46;15.23;;;10.70;;
28774;SDS011;15926;51.348;6.596;2023-05-13T05:47:12;13.32;;;11.93;;
28774;SDS011;15926;51.348;6.596;2023-05-13T05:49:38;13.85;;;12.43;;
28774;SDS011;15926;51.348;6.596;2023-05-13T05:52:04;14.10;;;11.20;;
28774;SDS011;15926;51.348;6.596;2023-05-13T05:54:30;14.05;;;11.65;;
28774;SDS011;15926;51.348;6.596;2023-05-13T05:56:56;15.07;;;12.75;;
28774;SDS011;15926;51.348;6.596;2023-05-13T05:59:22;14.90;;;12.18;;
28774;SDS011;15926;51.348;6.596;2023-05-13T06:01:48;17.95;;;11.73;;
28774;SDS011;15926;51.348;6.596;2023-05-13T06:04:14;17.45;;;12.23;;
28774;SDS011;15926;51.348;6.596;2023-05-13T06:06:41;16.23;;;11.35;;
28774;SDS011;15926;51.348;6.596;2023-05-13T06:09:07;12.45;;;11.15;;
28774;SDS011;15926;51.348;6.596;2023-05-13T06:11:33;15.65;;;11.10;;
28774;SDS011;15926;51.348;6.596;2023-05-13T06:13:59;15.23;;;11.85;;
28774;SDS011;15926;51.348;6.596;2023-05-13T06:16:25;13.93;;;11.75;;
28774;SDS011;15926;51.348;6.596;2023-05-13T06:18:51;13.25;;;11.70;;
28774;SDS011;15926;51.348;6.596;2023-05-13T06:21:17;13.27;;;11.32;;
28774;SDS011;15926;51.348;6.596;2023-05-13T06:23:43;17.58;;;11.13;;
28774;SDS011;15926;51.348;6.596;2023-05-13T06:26:09;14.82;;;12.05;;
28774;SDS011;15926;51.348;6.596;2023-05-13T06:28:35;14.82;;;11.63;;
28774;SDS011;15926;51.348;6.596;2023-05-13T06:31:01;13.25;;;11.60;;
28774;SDS011;15926;51.348;6.596;2023-05-13T06:33:27;20.20;;;11.13;;
28774;SDS011;15926;51.348;6.596;2023-05-13T06:35:53;11.65;;;10.40;;
28774;SDS011;15926;51.348;6.596;2023-05-13T06:38:19;14.10;;;10.90;;
28774;SDS011;15926;51.348;6.596;2023-05-13T06:40:45;15.75;;;11.43;;
28774;SDS011;15926;51.348;6.596;2023-05-13T06:43:11;12.60;;;9.90;;
28774;SDS011;15926;51.348;6.596;2023-05-13T06:45:42;12.57;;;10.55;;
28774;SDS011;15926;51.348;6.596;2023-05-13T06:48:07;12.68;;;10.25;;
28774;SDS011;15926;51.348;6.596;2023-05-13T06:50:34;12.48;;;10.57;;
28774;SDS011;15926;51.348;6.596;2023-05-13T06:53:00;16.63;;;10.02;;
28774;SDS011;15926;51.348;6.596;2023-05-13T06:55:26;12.52;;;9.93;;
28774;SDS011;15926;51.348;6.596;2023-05-13T06:57:52;10.68;;;8.90;;
28774;SDS011;15926;51.348;6.596;2023-05-13T07:00:18;12.70;;;10.65;;
28774;SDS011;15926;51.348;6.596;2023-05-13T07:02:44;10.07;;;9.05;;
28774;SDS011;15926;51.348;6.596;2023-05-13T07:05:10;13.32;;;9.57;;
28774;SDS011;15926;51.348;6.596;2023-05-13T07:07:36;11.65;;;9.30;;
28774;SDS011;15926;51.348;6.596;2023-05-13T07:10:02;13.15;;;9.07;;
28774;SDS011;15926;51.348;6.596;2023-05-13T07:12:28;11.63;;;9.18;;
28774;SDS011;15926;51.348;6.596;2023-05-13T07:14:55;11.52;;;8.77;;
28774;SDS011;15926;51.348;6.596;2023-05-13T07:17:21;14.20;;;8.65;;
28774;SDS011;15926;51.348;6.596;2023-05-13T07:19:47;9.30;;;8.23;;
28774;SDS011;15926;51.348;6.596;2023-05-13T07:22:13;9.18;;;7.88;;
28774;SDS011;15926;51.348;6.596;2023-05-13T07:24:39;11.25;;;7.20;;
28774;SDS011;15926;51.348;6.596;2023-05-13T07:27:05;9.35;;;7.68;;
28774;SDS011;15926;51.348;6.596;2023-05-13T07:29:32;10.88;;;7.90;;
28774;SDS011;15926;51.348;6.596;2023-05-13T07:32:01;10.95;;;7.82;;
28774;SDS011;15926;51.348;6.596;2023-05-13T07:34:27;7.85;;;7.05;;
28774;SDS011;15926;51.348;6.596;2023-05-13T07:36:53;8.60;;;6.65;;
28774;SDS011;15926;51.348;6.596;2023-05-13T07:39:19;7.82;;;6.35;;
28774;SDS011;15926;51.348;6.596;2023-05-13T07:41:45;7.18;;;6.53;;
28774;SDS011;15926;51.348;6.596;2023-05-13T07:44:11;8.30;;;7.22;;
28774;SDS011;15926;51.348;6.596;2023-05-13T07:46:37;7.85;;;7.05;;
28774;SDS011;15926;51.348;6.596;2023-05-13T07:49:03;8.70;;;6.88;;
28774;SDS011;15926;51.348;6.596;2023-05-13T07:51:32;7.80;;;6.97;;
28774;SDS011;15926;51.348;6.596;2023-05-13T07:53:58;7.70;;;6.63;;
28774;SDS011;15926;51.348;6.596;2023-05-13T07:56:24;6.50;;;5.90;;
28774;SDS011;15926;51.348;6.596;2023-05-13T07:58:50;14.65;;;6.22;;
28774;SDS011;15926;51.348;6.596;2023-05-13T08:01:16;8.50;;;5.68;;
28774;SDS011;15926;51.348;6.596;2023-05-13T08:03:42;7.78;;;5.80;;
28774;SDS011;15926;51.348;6.596;2023-05-13T08:06:08;6.88;;;5.68;;
28774;SDS011;15926;51.348;6.596;2023-05-13T08:08:35;6.97;;;5.85;;
28774;SDS011;15926;51.348;6.596;2023-05-13T08:11:01;8.25;;;6.75;;
28774;SDS011;15926;51.348;6.596;2023-05-13T08:13:27;9.80;;;5.80;;
28774;SDS011;15926;51.348;6.596;2023-05-13T08:15:53;8.57;;;5.63;;
28774;SDS011;15926;51.348;6.596;2023-05-13T08:18:19;8.27;;;5.60;;
28774;SDS011;15926;51.348;6.596;2023-05-13T08:20:45;6.32;;;5.20;;
28774;SDS011;15926;51.348;6.596;2023-05-13T08:23:11;5.90;;;5.18;;
28774;SDS011;15926;51.348;6.596;2023-05-13T08:25:37;5.70;;;5.15;;
28774;SDS011;15926;51.348;6.596;2023-05-13T08:28:03;5.85;;;5.28;;
28774;SDS011;15926;51.348;6.596;2023-05-13T08:30:29;6.78;;;5.65;;
28774;SDS011;15926;51.348;6.596;2023-05-13T08:32:55;6.20;;;5.70;;
28774;SDS011;15926;51.348;6.596;2023-05-13T08:35:21;7.18;;;5.93;;
28774;SDS011;15926;51.348;6.596;2023-05-13T08:37:47;10.07;;;5.82;;
28774;SDS011;15926;51.348;6.596;2023-05-13T08:40:13;9.13;;;5.05;;
28774;SDS011;15926;51.348;6.596;2023-05-13T08:42:41;12.07;;;5.00;;
28774;SDS011;15926;51.348;6.596;2023-05-13T08:45:07;7.15;;;4.93;;
28774;SDS011;15926;51.348;6.596;2023-05-13T08:50:00;9.07;;;6.47;;
28774;SDS011;15926;51.348;6.596;2023-05-13T08:52:26;7.35;;;5.25;;
28774;SDS011;15926;51.348;6.596;2023-05-13T08:54:52;8.50;;;5.68;;
28774;SDS011;15926;51.348;6.596;2023-05-13T08:57:19;6.93;;;5.50;;
28774;SDS011;15926;51.348;6.596;2023-05-13T08:59:45;5.70;;;4.28;;
28774;SDS011;15926;51.348;6.596;2023-05-13T09:02:11;7.25;;;4.68;;
28774;SDS011;15926;51.348;6.596;2023-05-13T09:04:38;6.70;;;4.55;;
28774;SDS011;15926;51.348;6.596;2023-05-13T09:07:05;6.18;;;4.65;;
28774;SDS011;15926;51.348;6.596;2023-05-13T09:09:31;7.30;;;5.18;;
28774;SDS011;15926;51.348;6.596;2023-05-13T09:11:58;6.97;;;4.53;;
28774;SDS011;15926;51.348;6.596;2023-05-13T09:14:28;5.55;;;3.78;;
28774;SDS011;15926;51.348;6.596;2023-05-13T09:16:56;6.22;;;4.45;;
28774;SDS011;15926;51.348;6.596;2023-05-13T09:19:22;8.32;;;4.70;;
28774;SDS011;15926;51.348;6.596;2023-05-13T09:21:48;8.10;;;4.78;;
28774;SDS011;15926;51.348;6.596;2023-05-13T09:24:15;7.20;;;5.47;;
28774;SDS011;15926;51.348;6.596;2023-05-13T09:26:46;8.02;;;5.22;;
28774;SDS011;15926;51.348;6.596;2023-05-13T09:29:13;6.70;;;5.20;;
28774;SDS011;15926;51.348;6.596;2023-05-13T09:31:39;5.25;;;4.43;;
28774;SDS011;15926;51.348;6.596;2023-05-13T09:34:05;5.38;;;4.53;;
28774;SDS011;15926;51.348;6.596;2023-05-13T09:36:32;6.63;;;4.70;;
28774;SDS011;15926;51.348;6.596;2023-05-13T09:38:58;7.78;;;4.85;;
28774;SDS011;15926;51.348;6.596;2023-05-13T09:41:29;4.63;;;4.22;;
28774;SDS011;15926;51.348;6.596;2023-05-13T09:43:56;4.18;;;3.75;;
28774;SDS011;15926;51.348;6.596;2023-05-13T09:46:22;7.75;;;4.45;;
28774;SDS011;15926;51.348;6.596;2023-05-13T09:48:49;7.38;;;4.22;;
28774;SDS011;15926;51.348;6.596;2023-05-13T09:51:24;7.90;;;4.50;;
28774;SDS011;15926;51.348;6.596;2023-05-13T09:53:51;6.47;;;4.13;;
28774;SDS011;15926;51.348;6.596;2023-05-13T09:56:18;6.57;;;4.40;;
28774;SDS011;15926;51.348;6.596;2023-05-13T09:58:50;5.47;;;3.80;;
28774;SDS011;15926;51.348;6.596;2023-05-13T10:01:16;7.70;;;3.70;;
28774;SDS011;15926;51.348;6.596;2023-05-13T10:03:42;3.70;;;3.40;;
28774;SDS011;15926;51.348;6.596;2023-05-13T10:06:09;5.03;;;3.28;;
28774;SDS011;15926;51.348;6.596;2023-05-13T10:08:35;5.60;;;3.10;;
28774;SDS011;15926;51.348;6.596;2023-05-13T10:11:03;5.43;;;3.08;;
28774;SDS011;15926;51.348;6.596;2023-05-13T10:13:31;4.88;;;3.38;;
28774;SDS011;15926;51.348;6.596;2023-05-13T10:15:57;3.22;;;2.97;;
28774;SDS011;15926;51.348;6.596;2023-05-13T10:18:23;2.95;;;2.65;;
28774;SDS011;15926;51.348;6.596;2023-05-13T10:20:50;4.68;;;2.80;;
28774;SDS011;15926;51.348;6.596;2023-05-13T10:23:20;6.32;;;3.30;;
28774;SDS011;15926;51.348;6.596;2023-05-13T10:25:46;4.05;;;3.38;;
28774;SDS011;15926;51.348;6.596;2023-05-13T10:28:13;3.75;;;3.00;;
28774;SDS011;15926;51.348;6.596;2023-05-13T10:30:39;3.80;;;2.90;;
28774;SDS011;15926;51.348;6.596;2023-05-13T10:33:05;6.47;;;2.95;;
28774;SDS011;15926;51.348;6.596;2023-05-13T10:35:33;3.30;;;3.00;;
28774;SDS011;15926;51.348;6.596;2023-05-13T10:45:38;3.50;;;2.55;;
28774;SDS011;15926;51.348;6.596;2023-05-13T10:48:04;6.20;;;2.63;;
28774;SDS011;15926;51.348;6.596;2023-05-13T10:50:31;8.27;;;2.65;;
28774;SDS011;15926;51.348;6.596;2023-05-13T10:52:57;4.47;;;2.78;;
28774;SDS011;15926;51.348;6.596;2023-05-13T10:55:24;6.15;;;3.40;;
28774;SDS011;15926;51.348;6.596;2023-05-13T10:58:07;3.60;;;2.63;;
28774;SDS011;15926;51.348;6.596;2023-05-13T11:00:34;3.60;;;2.35;;
28774;SDS011;15926;51.348;6.596;2023-05-13T11:05:37;3.60;;;2.63;;
28774;SDS011;15926;51.348;6.596;2023-05-13T11:08:03;3.47;;;2.83;;
28774;SDS011;15926;51.348;6.596;2023-05-13T11:10:29;3.95;;;2.83;;
28774;SDS011;15926;51.348;6.596;2023-05-13T11:13:40;2.70;;;2.10;;
28774;SDS011;15926;51.348;6.596;2023-05-13T11:15:42;3.83;;;2.20;;
28774;SDS011;15926;51.348;6.596;2023-05-13T11:18:09;4.15;;;2.50;;
28774;SDS011;15926;51.348;6.596;2023-05-13T11:20:36;4.20;;;2.40;;
28774;SDS011;15926;51.348;6.596;2023-05-13T11:23:02;2.75;;;2.20;;
28774;SDS011;15926;51.348;6.596;2023-05-13T11:25:28;3.67;;;2.85;;
28774;SDS011;15926;51.348;6.596;2023-05-13T11:27:54;3.03;;;2.65;;
28774;SDS011;15926;51.348;6.596;2023-05-13T11:30:26;4.18;;;2.90;;
28774;SDS011;15926;51.348;6.596;2023-05-13T11:32:56;4.55;;;2.70;;
28774;SDS011;15926;51.348;6.596;2023-05-13T11:35:32;2.63;;;2.30;;
28774;SDS011;15926;51.348;6.596;2023-05-13T11:37:58;4.88;;;2.45;;
28774;SDS011;15926;51.348;6.596;2023-05-13T11:40:28;2.60;;;2.40;;
28774;SDS011;15926;51.348;6.596;2023-05-13T11:42:55;5.60;;;3.20;;
28774;SDS011;15926;51.348;6.596;2023-05-13T11:45:22;4.22;;;2.85;;
28774;SDS011;15926;51.348;6.596;2023-05-13T11:47:48;4.93;;;2.67;;
28774;SDS011;15926;51.348;6.596;2023-05-13T11:50:21;2.78;;;2.58;;
28774;SDS011;15926;51.348;6.596;2023-05-13T11:52:51;3.70;;;2.38;;
28774;SDS011;15926;51.348;6.596;2023-05-13T11:55:28;3.50;;;2.60;;
28774;SDS011;15926;51.348;6.596;2023-05-13T11:57:55;2.72;;;2.28;;
28774;SDS011;15926;51.348;6.596;2023-05-13T12:00:28;3.10;;;2.72;;
28774;SDS011;15926;51.348;6.596;2023-05-13T12:02:55;3.10;;;2.88;;
28774;SDS011;15926;51.348;6.596;2023-05-13T12:05:21;3.47;;;2.45;;
28774;SDS011;15926;51.348;6.596;2023-05-13T12:07:47;3.78;;;2.30;;
28774;SDS011;15926;51.348;6.596;2023-05-13T12:10:13;4.10;;;2.78;;
28774;SDS011;15926;51.348;6.596;2023-05-13T12:12:40;4.75;;;2.70;;
28774;SDS011;15926;51.348;6.596;2023-05-13T12:15:11;3.97;;;2.33;;
28774;SDS011;15926;51.348;6.596;2023-05-13T12:17:37;6.65;;;2.80;;
28774;SDS011;15926;51.348;6.596;2023-05-13T12:22:30;3.05;;;2.65;;
28774;SDS011;15926;51.348;6.596;2023-05-13T12:24:56;3.00;;;2.70;;
28774;SDS011;15926;51.348;6.596;2023-05-13T12:27:25;2.30;;;2.10;;
28774;SDS011;15926;51.348;6.596;2023-05-13T12:29:54;4.32;;;3.05;;
28774;SDS011;15926;51.348;6.596;2023-05-13T12:32:22;3.17;;;2.88;;
28774;SDS011;15926;51.348;6.596;2023-05-13T12:34:49;2.93;;;2.67;;
28774;SDS011;15926;51.348;6.596;2023-05-13T12:37:15;3.47;;;2.70;;
28774;SDS011;15926;51.348;6.596;2023-05-13T12:39:41;2.88;;;2.47;;
28774;SDS011;15926;51.348;6.596;2023-05-13T12:42:14;5.43;;;2.63;;
28774;SDS011;15926;51.348;6.596;2023-05-13T12:44:41;3.03;;;2.58;;
28774;SDS011;15926;51.348;6.596;2023-05-13T12:47:07;3.00;;;2.65;;
28774;SDS011;15926;51.348;6.596;2023-05-13T12:49:34;2.80;;;2.60;;
28774;SDS011;15926;51.348;6.596;2023-05-13T12:52:01;3.30;;;2.38;;
28774;SDS011;15926;51.348;6.596;2023-05-13T12:54:28;4.55;;;3.17;;
28774;SDS011;15926;51.348;6.596;2023-05-13T12:56:54;5.68;;;3.78;;
28774;SDS011;15926;51.348;6.596;2023-05-13T12:59:20;6.78;;;3.47;;
28774;SDS011;15926;51.348;6.596;2023-05-13T13:01:46;4.18;;;2.58;;
28774;SDS011;15926;51.348;6.596;2023-05-13T13:04:14;4.40;;;2.72;;
28774;SDS011;15926;51.348;6.596;2023-05-13T13:06:40;4.53;;;3.20;;
28774;SDS011;15926;51.348;6.596;2023-05-13T13:09:06;3.55;;;3.25;;
28774;SDS011;15926;51.348;6.596;2023-05-13T13:11:32;12.48;;;6.28;;
28774;SDS011;15926;51.348;6.596;2023-05-13T13:13:58;9.88;;;3.60;;
28774;SDS011;15926;51.348;6.596;2023-05-13T13:16:24;3.28;;;2.40;;
28774;SDS011;15926;51.348;6.596;2023-05-13T13:18:50;7.55;;;2.75;;
28774;SDS011;15926;51.348;6.596;2023-05-13T13:21:17;6.07;;;2.60;;
28774;SDS011;15926;51.348;6.596;2023-05-13T13:23:43;3.30;;;2.90;;
28774;SDS011;15926;51.348;6.596;2023-05-13T13:26:09;3.00;;;2.80;;
28774;SDS011;15926;51.348;6.596;2023-05-13T13:28:35;4.68;;;3.25;;
28774;SDS011;15926;51.348;6.596;2023-05-13T13:31:01;4.03;;;3.45;;
28774;SDS011;15926;51.348;6.596;2023-05-13T13:33:27;4.47;;;3.17;;
28774;SDS011;15926;51.348;6.596;2023-05-13T13:35:53;4.97;;;2.75;;
28774;SDS011;15926;51.348;6.596;2023-05-13T13:38:19;3.03;;;2.83;;
28774;SDS011;15926;51.348;6.596;2023-05-13T13:40:45;6.18;;;2.42;;
28774;SDS011;15926;51.348;6.596;2023-05-13T13:43:11;3.58;;;2.75;;
28774;SDS011;15926;51.348;6.596;2023-05-13T13:45:37;2.83;;;2.63;;
28774;SDS011;15926;51.348;6.596;2023-05-13T13:48:03;2.47;;;2.22;;
28774;SDS011;15926;51.348;6.596;2023-05-13T13:50:29;4.50;;;2.55;;
28774;SDS011;15926;51.348;6.596;2023-05-13T13:52:55;4.15;;;2.30;;
28774;SDS011;15926;51.348;6.596;2023-05-13T13:55:22;3.85;;;3.05;;
28774;SDS011;15926;51.348;6.596;2023-05-13T13:57:48;5.53;;;2.83;;
28774;SDS011;15926;51.348;6.596;2023-05-13T14:00:15;2.88;;;2.10;;
28774;SDS011;15926;51.348;6.596;2023-05-13T14:02:42;2.92;;;2.63;;
28774;SDS011;15926;51.348;6.596;2023-05-13T14:05:08;3.88;;;2.20;;
28774;SDS011;15926;51.348;6.596;2023-05-13T14:07:34;3.55;;;2.92;;
28774;SDS011;15926;51.348;6.596;2023-05-13T14:10:01;4.90;;;2.10;;
28774;SDS011;15926;51.348;6.596;2023-05-13T14:12:27;2.33;;;2.05;;
28774;SDS011;15926;51.348;6.596;2023-05-13T14:14:53;2.60;;;2.40;;
28774;SDS011;15926;51.348;6.596;2023-05-13T14:17:19;3.10;;;2.33;;
28774;SDS011;15926;51.348;6.596;2023-05-13T14:19:45;2.53;;;2.10;;
28774;SDS011;15926;51.348;6.596;2023-05-13T14:22:15;2.75;;;2.17;;
28774;SDS011;15926;51.348;6.596;2023-05-13T14:24:41;2.78;;;2.58;;
28774;SDS011;15926;51.348;6.596;2023-05-13T14:27:07;5.32;;;2.13;;
28774;SDS011;15926;51.348;6.596;2023-05-13T14:29:33;5.80;;;2.50;;
28774;SDS011;15926;51.348;6.596;2023-05-13T14:31:59;3.22;;;2.58;;
28774;SDS011;15926;51.348;6.596;2023-05-13T14:34:28;11.30;;;2.53;;
28774;SDS011;15926;51.348;6.596;2023-05-13T14:36:54;2.15;;;1.92;;
28774;SDS011;15926;51.348;6.596;2023-05-13T14:39:20;4.20;;;2.45;;
28774;SDS011;15926;51.348;6.596;2023-05-13T14:41:46;3.08;;;2.13;;
28774;SDS011;15926;51.348;6.596;2023-05-13T14:44:12;2.35;;;2.20;;
28774;SDS011;15926;51.348;6.596;2023-05-13T14:46:38;3.58;;;2.25;;
28774;SDS011;15926;51.348;6.596;2023-05-13T14:49:05;3.47;;;2.13;;
28774;SDS011;15926;51.348;6.596;2023-05-13T14:51:32;5.45;;;2.50;;
28774;SDS011;15926;51.348;6.596;2023-05-13T14:53:58;3.42;;;2.63;;